createdAt,value
2018-06-01T00:00:36.235Z,22.06
2018-06-01T00:01:36.164Z,22.15
2018-06-01T00:02:57.087Z,22.15
2018-06-01T00:03:36.040Z,22.18
2018-06-01T00:04:35.960Z,22.17
2018-06-01T00:05:35.894Z,22.14
2018-06-01T00:06:35.831Z,22.25
2018-06-01T00:07:35.764Z,22.22
2018-06-01T00:08:56.679Z,22.17
2018-06-01T00:09:35.622Z,22.09
2018-06-01T00:10:35.555Z,22.07
2018-06-01T00:11:35.486Z,22.10
2018-06-01T00:12:35.431Z,22.02
2018-06-01T00:13:35.349Z,22.03
2018-06-01T00:14:56.277Z,22.10
2018-06-01T00:15:35.275Z,22.07
2018-06-01T00:16:35.144Z,22.09
2018-06-01T00:17:35.078Z,22.09
2018-06-01T00:18:35.028Z,22.00
2018-06-01T00:19:34.954Z,21.99
2018-06-01T00:20:55.881Z,21.94
2018-06-01T00:21:34.811Z,21.92
2018-06-01T00:22:34.745Z,21.91
2018-06-01T00:23:34.684Z,21.83
2018-06-01T00:24:34.608Z,21.80
2018-06-01T00:25:34.542Z,21.71
2018-06-01T00:26:55.452Z,21.84
2018-06-01T00:27:34.436Z,21.69
2018-06-01T00:28:34.341Z,21.77
2018-06-01T00:29:34.266Z,21.67
2018-06-01T00:30:34.203Z,21.77
2018-06-01T00:31:34.130Z,21.80
2018-06-01T00:32:55.073Z,21.83
2018-06-01T00:33:34.019Z,21.92
2018-06-01T00:34:33.926Z,21.98
2018-06-01T00:35:33.861Z,21.96
2018-06-01T00:36:33.792Z,21.91
2018-06-01T00:37:33.723Z,21.98
2018-06-01T00:38:54.641Z,21.98
2018-06-01T00:39:33.596Z,22.05
2018-06-01T00:40:33.520Z,22.00
2018-06-01T00:41:33.460Z,21.98
2018-06-01T00:42:33.393Z,21.92
2018-06-01T00:43:33.320Z,21.99
2018-06-01T00:44:54.234Z,22.00
2018-06-01T00:45:33.189Z,21.99
2018-06-01T00:46:33.136Z,22.03
2018-06-01T00:47:33.112Z,21.98
2018-06-01T00:48:32.998Z,22.07
2018-06-01T00:49:32.913Z,22.00
2018-06-01T00:50:53.834Z,21.92
2018-06-01T00:51:32.769Z,22.03
2018-06-01T00:52:32.709Z,22.02
2018-06-01T00:53:32.640Z,22.02
2018-06-01T00:54:32.573Z,22.02
2018-06-01T00:55:32.505Z,22.00
2018-06-01T00:56:53.423Z,22.03
2018-06-01T00:57:32.380Z,21.99
2018-06-01T00:58:32.299Z,22.06
2018-06-01T00:59:32.230Z,22.10
2018-06-01T01:00:32.168Z,22.06
2018-06-01T01:01:32.097Z,22.07
2018-06-01T01:02:53.031Z,22.15
2018-06-01T01:03:31.961Z,22.10
2018-06-01T01:04:31.898Z,22.10
2018-06-01T01:05:31.833Z,22.06
2018-06-01T01:06:31.758Z,22.06
2018-06-01T01:07:31.688Z,22.00
2018-06-01T01:08:52.606Z,22.02
2018-06-01T01:09:31.547Z,22.02
2018-06-01T01:10:31.491Z,22.03
2018-06-01T01:11:31.422Z,21.92
2018-06-01T01:12:31.353Z,22.03
2018-06-01T01:13:31.276Z,22.05
2018-06-01T01:14:52.208Z,22.02
2018-06-01T01:15:31.149Z,21.86
2018-06-01T01:16:31.081Z,21.91
2018-06-01T01:17:31.008Z,21.84
2018-06-01T01:18:30.943Z,21.84
2018-06-01T01:19:30.870Z,21.88
2018-06-01T01:20:51.799Z,21.77
2018-06-01T01:21:30.734Z,21.88
2018-06-01T01:22:30.679Z,21.79
2018-06-01T01:23:30.632Z,21.84
2018-06-01T01:24:30.540Z,21.91
2018-06-01T01:25:30.468Z,21.96
2018-06-01T01:26:51.387Z,22.00
2018-06-01T01:27:30.337Z,22.02
2018-06-01T01:28:30.265Z,22.07
2018-06-01T01:29:30.195Z,22.05
2018-06-01T01:30:30.125Z,22.00
2018-06-01T01:31:30.068Z,21.98
2018-06-01T01:32:50.972Z,21.99
2018-06-01T01:33:29.926Z,21.90
2018-06-01T01:34:29.856Z,21.94
2018-06-01T01:35:29.790Z,21.96
2018-06-01T01:36:29.718Z,21.84
2018-06-01T01:37:29.647Z,21.94
2018-06-01T01:38:50.578Z,21.98
2018-06-01T01:39:29.512Z,22.02
2018-06-01T01:40:29.443Z,22.00
2018-06-01T01:41:29.376Z,21.96
2018-06-01T01:42:29.316Z,22.02
2018-06-01T01:43:29.242Z,22.00
2018-06-01T01:44:50.167Z,21.98
2018-06-01T01:45:29.108Z,22.03
2018-06-01T01:46:29.033Z,22.06
2018-06-01T01:47:28.974Z,22.06
2018-06-01T01:48:28.918Z,21.99
2018-06-01T01:49:28.847Z,22.00
2018-06-01T01:50:49.752Z,22.06
2018-06-01T01:51:28.743Z,22.07
2018-06-01T01:52:28.639Z,22.10
2018-06-01T01:53:28.563Z,22.02
2018-06-01T01:54:28.512Z,21.99
2018-06-01T01:55:28.433Z,22.02
2018-06-01T01:56:49.350Z,22.06
2018-06-01T01:57:28.293Z,22.06
2018-06-01T01:58:28.225Z,22.06
2018-06-01T01:59:28.161Z,22.03
2018-06-01T02:00:28.090Z,22.00
2018-06-01T02:01:28.026Z,21.96
2018-06-01T02:02:48.944Z,21.96
2018-06-01T02:03:27.894Z,21.96
2018-06-01T02:04:27.832Z,21.91
2018-06-01T02:05:27.749Z,21.98
2018-06-01T02:06:27.698Z,22.00
2018-06-01T02:07:27.613Z,21.94
2018-06-01T02:08:48.533Z,21.92
2018-06-01T02:09:27.477Z,22.06
2018-06-01T02:10:27.409Z,21.98
2018-06-01T02:11:27.345Z,22.00
2018-06-01T02:12:27.276Z,21.99
2018-06-01T02:13:27.208Z,22.00
2018-06-01T02:14:48.122Z,21.98
2018-06-01T02:15:27.071Z,22.02
2018-06-01T02:16:27.001Z,22.02
2018-06-01T02:17:26.936Z,22.03
2018-06-01T02:18:26.870Z,21.98
2018-06-01T02:19:26.797Z,21.99
2018-06-01T02:20:47.721Z,21.99
2018-06-01T02:21:26.664Z,22.05
2018-06-01T02:22:26.596Z,22.02
2018-06-01T02:23:26.528Z,22.00
2018-06-01T02:24:26.455Z,22.00
2018-06-01T02:25:26.393Z,21.86
2018-06-01T02:26:47.319Z,21.98
2018-06-01T02:27:26.256Z,21.83
2018-06-01T02:28:26.188Z,21.82
2018-06-01T02:29:26.122Z,21.83
2018-06-01T02:30:26.053Z,21.83
2018-06-01T02:31:25.985Z,21.79
2018-06-01T02:32:46.908Z,21.77
2018-06-01T02:33:25.848Z,21.83
2018-06-01T02:34:25.785Z,21.86
2018-06-01T02:35:25.715Z,21.84
2018-06-01T02:36:25.646Z,21.83
2018-06-01T02:37:25.572Z,21.83
2018-06-01T02:38:46.492Z,21.77
2018-06-01T02:39:25.499Z,21.68
2018-06-01T02:40:25.378Z,21.69
2018-06-01T02:41:25.302Z,21.80
2018-06-01T02:42:25.241Z,21.75
2018-06-01T02:43:25.169Z,21.69
2018-06-01T02:44:46.087Z,21.65
2018-06-01T02:45:25.058Z,21.67
2018-06-01T02:46:25.027Z,21.77
2018-06-01T02:47:24.904Z,21.82
2018-06-01T02:48:24.831Z,21.72
2018-06-01T02:49:24.757Z,21.65
2018-06-01T02:50:45.683Z,21.54
2018-06-01T02:51:24.626Z,21.47
2018-06-01T02:52:24.554Z,21.58
2018-06-01T02:53:24.493Z,21.52
2018-06-01T02:54:24.423Z,21.54
2018-06-01T02:55:24.351Z,21.53
2018-06-01T02:56:45.272Z,21.47
2018-06-01T02:57:24.215Z,21.54
2018-06-01T02:58:24.150Z,21.56
2018-06-01T02:59:24.076Z,21.52
2018-06-01T03:00:24.006Z,21.43
2018-06-01T03:01:23.945Z,21.37
2018-06-01T03:02:44.864Z,21.32
2018-06-01T03:03:23.811Z,21.27
2018-06-01T03:04:23.749Z,21.24
2018-06-01T03:05:23.678Z,21.21
2018-06-01T03:06:23.600Z,21.04
2018-06-01T03:07:23.534Z,20.98
2018-06-01T03:08:44.454Z,20.87
2018-06-01T03:09:23.395Z,20.67
2018-06-01T03:10:23.326Z,20.36
2018-06-01T03:11:23.266Z,20.14
2018-06-01T03:12:23.196Z,19.47
2018-06-01T03:13:23.127Z,18.98
2018-06-01T03:14:44.108Z,18.75
2018-06-01T03:15:22.997Z,18.47
2018-06-01T03:16:22.920Z,18.26
2018-06-01T03:17:22.848Z,18.15
2018-06-01T03:18:22.796Z,18.00
2018-06-01T03:19:22.750Z,18.02
2018-06-01T03:20:43.638Z,17.90
2018-06-01T03:21:22.576Z,17.56
2018-06-01T03:22:22.506Z,17.59
2018-06-01T03:23:22.428Z,17.51
2018-06-01T03:24:22.373Z,17.40
2018-06-01T03:25:22.294Z,17.40
2018-06-01T03:26:43.228Z,17.37
2018-06-01T03:27:22.157Z,17.37
2018-06-01T03:28:22.090Z,17.38
2018-06-01T03:29:22.010Z,17.46
2018-06-01T03:30:21.937Z,17.46
2018-06-01T03:31:21.867Z,17.56
2018-06-01T03:32:42.784Z,17.66
2018-06-01T03:33:21.725Z,17.64
2018-06-01T03:34:21.654Z,17.68
2018-06-01T03:35:21.602Z,17.78
2018-06-01T03:36:21.521Z,17.92
2018-06-01T03:37:21.443Z,17.90
2018-06-01T03:38:42.360Z,17.92
2018-06-01T03:39:21.318Z,18.07
2018-06-01T03:40:21.248Z,17.97
2018-06-01T03:41:21.162Z,17.89
2018-06-01T03:42:21.094Z,17.77
2018-06-01T03:43:21.020Z,17.79
2018-06-01T03:44:41.942Z,17.87
2018-06-01T03:45:20.877Z,17.92
2018-06-01T03:46:20.807Z,17.78
2018-06-01T03:47:20.735Z,17.90
2018-06-01T03:48:20.667Z,18.00
2018-06-01T03:49:20.590Z,18.15
2018-06-01T03:50:41.511Z,18.26
2018-06-01T03:51:20.451Z,18.18
2018-06-01T03:52:20.390Z,18.30
2018-06-01T03:53:20.322Z,18.23
2018-06-01T03:54:20.247Z,18.17
2018-06-01T03:55:20.175Z,18.26
2018-06-01T03:56:41.088Z,18.23
2018-06-01T03:57:20.028Z,18.23
2018-06-01T03:58:19.965Z,18.26
2018-06-01T03:59:19.883Z,18.20
2018-06-01T04:00:19.820Z,18.25
2018-06-01T04:01:19.745Z,18.26
2018-06-01T04:02:40.661Z,18.33
2018-06-01T04:03:19.604Z,18.30
2018-06-01T04:04:19.534Z,18.37
2018-06-01T04:05:19.472Z,18.29
2018-06-01T04:06:19.390Z,18.27
2018-06-01T04:07:19.321Z,18.35
2018-06-01T04:08:40.237Z,18.37
2018-06-01T04:09:19.188Z,18.30
2018-06-01T04:10:19.140Z,18.33
2018-06-01T04:11:19.036Z,18.33
2018-06-01T04:12:18.970Z,18.37
2018-06-01T04:13:18.903Z,18.36
2018-06-01T04:14:39.809Z,18.33
2018-06-01T04:15:18.753Z,18.33
2018-06-01T04:16:18.699Z,18.27
2018-06-01T04:17:18.612Z,18.29
2018-06-01T04:18:18.549Z,18.33
2018-06-01T04:19:18.475Z,18.26
2018-06-01T04:20:39.385Z,18.30
2018-06-01T04:21:18.337Z,18.33
2018-06-01T04:22:18.263Z,18.36
2018-06-01T04:23:18.189Z,18.26
2018-06-01T04:24:18.172Z,18.27
2018-06-01T04:25:18.059Z,18.29
2018-06-01T04:26:38.967Z,18.33
2018-06-01T04:27:17.902Z,18.32
2018-06-01T04:28:17.834Z,18.32
2018-06-01T04:29:17.787Z,18.26
2018-06-01T04:30:17.693Z,18.26
2018-06-01T04:31:17.626Z,18.29
2018-06-01T04:32:38.536Z,18.23
2018-06-01T04:33:17.486Z,18.29
2018-06-01T04:34:17.416Z,18.20
2018-06-01T04:35:17.348Z,18.18
2018-06-01T04:36:17.267Z,18.30
2018-06-01T04:37:17.208Z,18.25
2018-06-01T04:38:38.124Z,18.27
2018-06-01T04:39:17.067Z,18.35
2018-06-01T04:40:16.988Z,18.30
2018-06-01T04:41:16.925Z,18.45
2018-06-01T04:42:16.857Z,18.47
2018-06-01T04:43:16.795Z,18.62
2018-06-01T04:44:37.700Z,18.55
2018-06-01T04:45:16.641Z,18.52
2018-06-01T04:46:16.574Z,18.50
2018-06-01T04:47:16.499Z,18.58
2018-06-01T04:48:16.428Z,18.51
2018-06-01T04:49:16.399Z,18.48
2018-06-01T04:50:37.277Z,18.47
2018-06-01T04:51:16.217Z,18.50
2018-06-01T04:52:16.161Z,18.55
2018-06-01T04:53:16.073Z,18.58
2018-06-01T04:54:16.001Z,18.51
2018-06-01T04:55:15.936Z,18.52
2018-06-01T04:56:36.843Z,18.58
2018-06-01T04:57:15.795Z,18.55
2018-06-01T04:58:15.726Z,18.57
2018-06-01T04:59:15.656Z,18.55
2018-06-01T05:00:15.587Z,18.57
2018-06-01T05:01:15.521Z,18.54
2018-06-01T05:02:36.425Z,18.63
2018-06-01T05:03:15.364Z,18.67
2018-06-01T05:04:15.292Z,18.72
2018-06-01T05:05:15.230Z,18.66
2018-06-01T05:06:15.158Z,18.73
2018-06-01T05:07:15.087Z,18.60
2018-06-01T05:08:36.020Z,18.67
2018-06-01T05:09:14.946Z,18.65
2018-06-01T05:10:14.879Z,18.55
2018-06-01T05:11:14.806Z,18.67
2018-06-01T05:12:14.739Z,18.69
2018-06-01T05:13:14.668Z,18.57
2018-06-01T05:14:35.580Z,18.66
2018-06-01T05:15:14.526Z,18.67
2018-06-01T05:16:14.455Z,18.65
2018-06-01T05:17:14.388Z,18.70
2018-06-01T05:18:14.322Z,18.72
2018-06-01T05:19:14.240Z,18.51
2018-06-01T05:20:35.157Z,18.57
2018-06-01T05:21:14.099Z,18.63
2018-06-01T05:22:14.114Z,18.69
2018-06-01T05:23:13.958Z,18.66
2018-06-01T05:24:13.892Z,18.70
2018-06-01T05:25:13.823Z,18.67
2018-06-01T05:26:34.744Z,18.75
2018-06-01T05:27:13.677Z,18.73
2018-06-01T05:28:13.610Z,18.73
2018-06-01T05:29:13.540Z,18.76
2018-06-01T05:30:13.472Z,18.78
2018-06-01T05:31:13.400Z,18.73
2018-06-01T05:32:34.313Z,18.84
2018-06-01T05:33:13.257Z,18.91
2018-06-01T05:34:13.193Z,18.87
2018-06-01T05:35:13.125Z,18.85
2018-06-01T05:36:13.053Z,18.82
2018-06-01T05:37:12.978Z,18.85
2018-06-01T05:38:33.895Z,18.99
2018-06-01T05:39:12.836Z,18.94
2018-06-01T05:40:12.767Z,19.06
2018-06-01T05:41:12.700Z,19.06
2018-06-01T05:42:12.640Z,18.99
2018-06-01T05:43:12.564Z,19.00
2018-06-01T05:44:33.496Z,19.08
2018-06-01T05:45:12.422Z,18.99
2018-06-01T05:46:12.350Z,18.92
2018-06-01T05:47:12.275Z,18.90
2018-06-01T05:48:12.207Z,18.87
2018-06-01T05:49:12.141Z,18.94
2018-06-01T05:50:33.056Z,18.82
2018-06-01T05:51:12.009Z,18.80
2018-06-01T05:52:11.927Z,18.95
2018-06-01T05:53:11.862Z,18.98
2018-06-01T05:54:11.787Z,18.98
2018-06-01T05:55:11.719Z,18.87
2018-06-01T05:56:32.631Z,18.99
2018-06-01T05:57:11.585Z,19.07
2018-06-01T05:58:11.505Z,18.95
2018-06-01T05:59:11.433Z,19.02
2018-06-01T06:00:11.366Z,18.95
2018-06-01T06:01:11.294Z,18.98
2018-06-01T06:02:32.246Z,19.13
2018-06-01T06:03:11.165Z,18.95
2018-06-01T06:04:11.086Z,18.94
2018-06-01T06:05:11.017Z,18.88
2018-06-01T06:06:10.982Z,18.90
2018-06-01T06:07:10.889Z,19.00
2018-06-01T06:08:31.823Z,19.08
2018-06-01T06:09:10.752Z,19.00
2018-06-01T06:10:10.671Z,19.02
2018-06-01T06:11:10.601Z,19.19
2018-06-01T06:12:10.530Z,19.23
2018-06-01T06:13:10.473Z,19.21
2018-06-01T06:14:31.390Z,19.29
2018-06-01T06:15:10.319Z,19.31
2018-06-01T06:16:10.251Z,19.25
2018-06-01T06:17:10.194Z,19.23
2018-06-01T06:18:10.114Z,19.19
2018-06-01T06:19:10.044Z,19.23
2018-06-01T06:20:30.966Z,19.19
2018-06-01T06:21:09.913Z,19.23
2018-06-01T06:22:09.843Z,19.23
2018-06-01T06:23:09.757Z,19.18
2018-06-01T06:24:09.702Z,19.14
2018-06-01T06:25:09.629Z,19.11
2018-06-01T06:26:30.533Z,19.29
2018-06-01T06:27:09.478Z,19.23
2018-06-01T06:28:09.460Z,19.33
2018-06-01T06:29:09.344Z,19.28
2018-06-01T06:30:09.279Z,19.28
2018-06-01T06:31:09.198Z,19.44
2018-06-01T06:32:30.124Z,19.48
2018-06-01T06:33:09.069Z,19.48
2018-06-01T06:34:08.989Z,19.54
2018-06-01T06:35:08.925Z,19.62
2018-06-01T06:36:08.872Z,19.62
2018-06-01T06:37:08.786Z,19.73
2018-06-01T06:38:29.706Z,19.65
2018-06-01T06:39:08.646Z,19.68
2018-06-01T06:40:08.574Z,19.80
2018-06-01T06:41:08.521Z,19.74
2018-06-01T06:42:08.442Z,19.76
2018-06-01T06:43:08.375Z,19.86
2018-06-01T06:44:29.283Z,19.87
2018-06-01T06:45:08.232Z,19.86
2018-06-01T06:46:08.161Z,19.94
2018-06-01T06:47:08.085Z,20.03
2018-06-01T06:48:08.028Z,20.08
2018-06-01T06:49:07.950Z,20.11
2018-06-01T06:50:28.860Z,20.17
2018-06-01T06:51:07.811Z,20.20
2018-06-01T06:52:07.744Z,20.35
2018-06-01T06:53:07.668Z,20.33
2018-06-01T06:54:07.607Z,20.23
2018-06-01T06:55:07.582Z,20.18
2018-06-01T06:56:28.454Z,20.10
2018-06-01T06:57:07.395Z,20.11
2018-06-01T06:58:07.327Z,20.10
2018-06-01T06:59:07.256Z,20.16
2018-06-01T07:00:07.195Z,20.17
2018-06-01T07:01:07.129Z,20.16
2018-06-01T07:02:28.040Z,20.17
2018-06-01T07:03:06.975Z,20.13
2018-06-01T07:04:06.919Z,20.17
2018-06-01T07:05:06.842Z,20.21
2018-06-01T07:06:06.777Z,20.17
2018-06-01T07:07:06.710Z,20.35
2018-06-01T07:08:27.624Z,20.18
2018-06-01T07:09:06.570Z,20.33
2018-06-01T07:10:06.513Z,20.21
2018-06-01T07:11:06.431Z,20.21
2018-06-01T07:12:06.367Z,20.23
2018-06-01T07:13:06.287Z,20.18
2018-06-01T07:14:27.210Z,20.21
2018-06-01T07:15:06.160Z,20.10
2018-06-01T07:16:06.094Z,20.28
2018-06-01T07:17:06.007Z,20.13
2018-06-01T07:18:05.942Z,20.16
2018-06-01T07:19:05.883Z,20.11
2018-06-01T07:20:26.849Z,20.13
2018-06-01T07:21:05.767Z,20.10
2018-06-01T07:22:05.668Z,20.08
2018-06-01T07:23:05.604Z,20.13
2018-06-01T07:24:05.526Z,19.98
2018-06-01T07:25:05.458Z,20.01
2018-06-01T07:26:26.372Z,19.99
2018-06-01T07:27:05.324Z,20.06
2018-06-01T07:28:05.252Z,20.01
2018-06-01T07:29:05.192Z,20.02
2018-06-01T07:30:05.111Z,19.87
2018-06-01T07:31:05.042Z,19.98
2018-06-01T07:32:25.956Z,20.08
2018-06-01T07:33:04.914Z,19.98
2018-06-01T07:34:04.831Z,20.01
2018-06-01T07:35:04.772Z,19.96
2018-06-01T07:36:04.706Z,20.01
2018-06-01T07:37:04.639Z,20.02
2018-06-01T07:38:25.542Z,19.99
2018-06-01T07:39:04.494Z,20.05
2018-06-01T07:40:04.423Z,19.96
2018-06-01T07:41:04.348Z,20.02
2018-06-01T07:42:04.281Z,20.18
2018-06-01T07:43:04.218Z,20.11
2018-06-01T07:44:25.154Z,20.17
2018-06-01T07:45:04.069Z,20.21
2018-06-01T07:46:04.007Z,20.23
2018-06-01T07:47:03.937Z,20.14
2018-06-01T07:48:03.885Z,20.21
2018-06-01T07:49:03.794Z,20.18
2018-06-01T07:50:24.716Z,20.20
2018-06-01T07:51:03.666Z,20.23
2018-06-01T07:52:03.587Z,20.21
2018-06-01T07:53:03.515Z,20.08
2018-06-01T07:54:03.461Z,20.17
2018-06-01T07:55:03.398Z,20.18
2018-06-01T07:56:24.304Z,20.18
2018-06-01T07:57:03.240Z,20.18
2018-06-01T07:58:03.184Z,20.20
2018-06-01T07:59:03.105Z,20.20
2018-06-01T08:00:03.044Z,20.23
2018-06-01T08:01:02.965Z,20.20
2018-06-01T08:02:23.905Z,20.26
2018-06-01T08:03:02.838Z,20.26
2018-06-01T08:04:02.754Z,20.23
2018-06-01T08:05:02.688Z,20.33
2018-06-01T08:06:02.625Z,20.39
2018-06-01T08:07:02.568Z,20.33
2018-06-01T08:08:23.492Z,20.31
2018-06-01T08:09:02.418Z,20.41
2018-06-01T08:10:02.351Z,20.36
2018-06-01T08:11:02.273Z,20.38
2018-06-01T08:12:02.210Z,20.38
2018-06-01T08:13:02.143Z,20.51
2018-06-01T08:14:23.054Z,20.52
2018-06-01T08:15:02.009Z,20.52
2018-06-01T08:16:01.934Z,20.70
2018-06-01T08:17:01.866Z,20.67
2018-06-01T08:18:01.798Z,20.57
2018-06-01T08:19:01.726Z,20.57
2018-06-01T08:20:22.752Z,20.47
2018-06-01T08:21:01.588Z,20.41
2018-06-01T08:22:01.524Z,20.41
2018-06-01T08:23:01.448Z,20.38
2018-06-01T08:24:01.381Z,20.50
2018-06-01T08:25:01.314Z,20.43
2018-06-01T08:26:22.225Z,20.50
2018-06-01T08:27:01.206Z,20.62
2018-06-01T08:28:01.111Z,20.62
2018-06-01T08:29:01.032Z,20.69
2018-06-01T08:30:00.968Z,20.70
2018-06-01T08:31:00.903Z,20.79
2018-06-01T08:32:21.864Z,20.80
2018-06-01T08:33:00.762Z,20.88
2018-06-01T08:34:00.691Z,20.89
2018-06-01T08:35:00.622Z,20.99
2018-06-01T08:36:00.562Z,21.03
2018-06-01T08:37:00.498Z,20.95
2018-06-01T08:38:21.410Z,20.98
2018-06-01T08:39:00.353Z,20.97
2018-06-01T08:40:00.279Z,21.01
2018-06-01T08:41:00.211Z,21.01
2018-06-01T08:42:00.145Z,20.97
2018-06-01T08:43:00.092Z,20.95
2018-06-01T08:44:20.998Z,21.03
2018-06-01T08:44:59.940Z,20.95
2018-06-01T08:45:59.876Z,21.06
2018-06-01T08:46:59.809Z,20.92
2018-06-01T08:47:59.769Z,20.97
2018-06-01T08:48:59.660Z,20.98
2018-06-01T08:50:20.577Z,21.07
2018-06-01T08:50:59.533Z,20.99
2018-06-01T08:51:59.454Z,21.04
2018-06-01T08:52:59.390Z,20.92
2018-06-01T08:53:59.326Z,20.94
2018-06-01T08:54:59.260Z,20.88
2018-06-01T08:56:20.174Z,20.88
2018-06-01T08:56:59.119Z,20.82
2018-06-01T08:57:59.049Z,20.82
2018-06-01T08:58:59.004Z,20.80
2018-06-01T08:59:58.914Z,20.70
2018-06-01T09:00:58.842Z,20.67
2018-06-01T09:02:19.764Z,20.82
2018-06-01T09:02:58.707Z,20.79
2018-06-01T09:03:58.677Z,20.84
2018-06-01T09:04:58.583Z,20.87
2018-06-01T09:05:58.505Z,20.80
2018-06-01T09:06:58.433Z,20.80
2018-06-01T09:08:19.351Z,20.70
2018-06-01T09:08:58.307Z,20.61
2018-06-01T09:09:58.233Z,20.73
2018-06-01T09:10:58.161Z,20.69
2018-06-01T09:11:58.091Z,20.61
2018-06-01T09:12:58.023Z,20.67
2018-06-01T09:14:18.944Z,20.69
2018-06-01T09:14:57.892Z,20.59
2018-06-01T09:15:57.817Z,20.58
2018-06-01T09:16:57.743Z,20.50
2018-06-01T09:17:57.689Z,20.51
2018-06-01T09:18:57.614Z,20.48
2018-06-01T09:20:18.525Z,20.59
2018-06-01T09:20:57.478Z,20.54
2018-06-01T09:21:57.398Z,20.54
2018-06-01T09:22:57.339Z,20.57
2018-06-01T09:23:57.273Z,20.55
2018-06-01T09:24:57.191Z,20.55
2018-06-01T09:26:18.111Z,20.52
2018-06-01T09:26:57.064Z,20.54
2018-06-01T09:27:56.990Z,20.52
2018-06-01T09:28:56.919Z,20.66
2018-06-01T09:29:56.850Z,20.62
2018-06-01T09:30:56.785Z,20.67
2018-06-01T09:32:17.705Z,20.72
2018-06-01T09:32:56.648Z,20.67
2018-06-01T09:33:56.577Z,20.67
2018-06-01T09:34:56.509Z,20.61
2018-06-01T09:35:56.445Z,20.66
2018-06-01T09:36:56.377Z,20.67
2018-06-01T09:38:17.294Z,20.66
2018-06-01T09:38:56.251Z,20.64
2018-06-01T09:39:56.170Z,20.67
2018-06-01T09:40:56.090Z,20.70
2018-06-01T09:41:56.024Z,20.72
2018-06-01T09:42:55.955Z,20.70
2018-06-01T09:44:16.888Z,20.72
2018-06-01T09:44:55.818Z,20.67
2018-06-01T09:45:55.756Z,20.73
2018-06-01T09:46:55.683Z,20.57
2018-06-01T09:47:55.617Z,20.61
2018-06-01T09:48:55.548Z,20.58
2018-06-01T09:50:16.458Z,20.54
2018-06-01T09:50:55.409Z,20.69
2018-06-01T09:51:55.335Z,20.66
2018-06-01T09:52:55.273Z,20.69
2018-06-01T09:53:55.200Z,20.54
2018-06-01T09:54:55.140Z,20.47
2018-06-01T09:56:16.045Z,20.51
2018-06-01T09:56:54.988Z,20.57
2018-06-01T09:57:54.918Z,20.55
2018-06-01T09:58:54.858Z,20.57
2018-06-01T09:59:54.782Z,20.62
2018-06-01T10:00:54.712Z,20.70
2018-06-01T10:02:15.635Z,20.62
2018-06-01T10:02:54.581Z,20.61
2018-06-01T10:03:54.518Z,20.64
2018-06-01T10:04:54.461Z,20.66
2018-06-01T10:05:54.374Z,20.64
2018-06-01T10:06:54.305Z,20.69
2018-06-01T10:08:15.224Z,20.73
2018-06-01T10:08:54.161Z,20.74
2018-06-01T10:09:54.106Z,20.72
2018-06-01T10:10:54.027Z,20.79
2018-06-01T10:11:53.953Z,20.72
2018-06-01T10:12:53.890Z,20.67
2018-06-01T10:14:14.811Z,20.70
2018-06-01T10:14:53.757Z,20.64
2018-06-01T10:15:53.683Z,20.64
2018-06-01T10:16:53.608Z,20.57
2018-06-01T10:17:53.550Z,20.72
2018-06-01T10:18:53.478Z,20.67
2018-06-01T10:20:14.393Z,20.70
2018-06-01T10:20:53.339Z,20.79
2018-06-01T10:21:53.273Z,20.87
2018-06-01T10:22:53.207Z,20.79
2018-06-01T10:23:53.127Z,20.79
2018-06-01T10:24:53.064Z,20.82
2018-06-01T10:26:13.993Z,20.85
2018-06-01T10:26:52.927Z,20.88
2018-06-01T10:27:52.853Z,20.82
2018-06-01T10:28:52.797Z,20.85
2018-06-01T10:29:52.752Z,20.77
2018-06-01T10:30:52.657Z,20.79
2018-06-01T10:32:13.562Z,20.79
2018-06-01T10:32:52.530Z,20.84
2018-06-01T10:33:52.442Z,20.61
2018-06-01T10:34:52.371Z,20.67
2018-06-01T10:35:52.305Z,20.64
2018-06-01T10:36:52.236Z,20.64
2018-06-01T10:38:13.155Z,20.54
2018-06-01T10:38:52.093Z,20.64
2018-06-01T10:39:52.031Z,20.59
2018-06-01T10:40:51.959Z,20.54
2018-06-01T10:41:51.887Z,20.54
2018-06-01T10:42:51.821Z,20.42
2018-06-01T10:44:12.738Z,20.41
2018-06-01T10:44:51.684Z,20.35
2018-06-01T10:45:51.617Z,20.36
2018-06-01T10:46:51.577Z,20.35
2018-06-01T10:47:51.477Z,20.26
2018-06-01T10:48:51.410Z,20.23
2018-06-01T10:50:12.329Z,20.14
2018-06-01T10:50:51.269Z,20.08
2018-06-01T10:51:51.208Z,19.92
2018-06-01T10:52:51.131Z,20.01
2018-06-01T10:53:51.058Z,20.01
2018-06-01T10:54:50.993Z,19.99
2018-06-01T10:56:11.920Z,19.84
2018-06-01T10:56:50.852Z,19.87
2018-06-01T10:57:50.788Z,19.87
2018-06-01T10:58:50.719Z,19.81
2018-06-01T10:59:50.647Z,19.88
2018-06-01T11:00:50.582Z,19.86
2018-06-01T11:02:11.497Z,19.84
2018-06-01T11:02:50.443Z,19.86
2018-06-01T11:03:50.377Z,19.87
2018-06-01T11:04:50.308Z,19.86
2018-06-01T11:05:50.228Z,19.87
2018-06-01T11:06:50.169Z,19.91
2018-06-01T11:08:11.122Z,19.83
2018-06-01T11:08:50.031Z,19.83
2018-06-01T11:09:49.949Z,19.83
2018-06-01T11:10:49.880Z,19.86
2018-06-01T11:11:49.814Z,19.86
2018-06-01T11:12:49.779Z,19.91
2018-06-01T11:14:10.668Z,19.87
2018-06-01T11:14:49.606Z,19.87
2018-06-01T11:15:49.536Z,19.80
2018-06-01T11:16:49.496Z,19.73
2018-06-01T11:17:49.393Z,19.55
2018-06-01T11:18:49.334Z,19.48
2018-06-01T11:20:10.240Z,19.56
2018-06-01T11:20:49.183Z,19.58
2018-06-01T11:21:49.117Z,19.50
2018-06-01T11:22:49.964Z,19.44
2018-06-01T11:23:48.986Z,19.36
2018-06-01T11:24:48.904Z,19.39
2018-06-01T11:26:09.828Z,19.29
2018-06-01T11:26:48.800Z,19.21
2018-06-01T11:27:48.700Z,19.23
2018-06-01T11:28:48.631Z,19.22
2018-06-01T11:29:48.553Z,19.31
2018-06-01T11:30:48.497Z,19.33
2018-06-01T11:32:09.406Z,19.28
2018-06-01T11:32:48.344Z,19.36
2018-06-01T11:33:48.279Z,19.36
2018-06-01T11:34:48.215Z,19.23
2018-06-01T11:35:48.138Z,19.13
2018-06-01T11:36:48.068Z,19.14
2018-06-01T11:38:08.986Z,19.19
2018-06-01T11:38:47.944Z,19.16
2018-06-01T11:39:47.889Z,19.18
2018-06-01T11:40:47.784Z,19.18
2018-06-01T11:41:47.717Z,19.11
2018-06-01T11:42:47.649Z,19.18
2018-06-01T11:44:08.564Z,19.28
2018-06-01T11:44:47.506Z,19.21
2018-06-01T11:45:47.445Z,19.18
2018-06-01T11:46:47.377Z,19.10
2018-06-01T11:47:47.294Z,19.18
2018-06-01T11:48:47.231Z,19.23
2018-06-01T11:50:08.136Z,19.21
2018-06-01T11:50:47.097Z,19.14
2018-06-01T11:51:47.014Z,19.08
2018-06-01T11:52:46.942Z,19.13
2018-06-01T11:53:46.903Z,19.10
2018-06-01T11:54:46.820Z,19.25
2018-06-01T11:56:07.783Z,19.14
2018-06-01T11:56:46.665Z,19.26
2018-06-01T11:57:46.599Z,19.29
2018-06-01T11:58:46.541Z,19.21
2018-06-01T11:59:46.461Z,19.28
2018-06-01T12:00:46.420Z,19.32
2018-06-01T12:02:07.302Z,19.36
2018-06-01T12:02:46.256Z,19.36
2018-06-01T12:03:46.962Z,19.37
2018-06-01T12:04:46.096Z,19.33
2018-06-01T12:05:46.036Z,19.40
2018-06-01T12:06:45.975Z,19.36
2018-06-01T12:08:06.876Z,19.32
2018-06-01T12:08:45.830Z,19.26
2018-06-01T12:09:45.750Z,19.26
2018-06-01T12:10:45.695Z,19.26
2018-06-01T12:11:45.612Z,19.36
2018-06-01T12:12:45.544Z,19.36
2018-06-01T12:14:06.455Z,19.28
2018-06-01T12:14:45.407Z,19.26
2018-06-01T12:15:45.341Z,19.29
2018-06-01T12:16:45.264Z,19.36
2018-06-01T12:17:45.246Z,19.37
2018-06-01T12:18:45.127Z,19.32
2018-06-01T12:20:06.036Z,19.19
2018-06-01T12:20:44.980Z,19.23
2018-06-01T12:21:44.914Z,19.31
2018-06-01T12:22:44.848Z,19.19
2018-06-01T12:23:44.816Z,19.19
2018-06-01T12:24:44.703Z,19.19
2018-06-01T12:26:05.617Z,19.21
2018-06-01T12:26:44.600Z,19.21
2018-06-01T12:27:44.491Z,19.19
2018-06-01T12:28:44.439Z,19.14
2018-06-01T12:29:44.349Z,19.16
2018-06-01T12:30:44.280Z,19.22
2018-06-01T12:32:05.196Z,19.25
2018-06-01T12:32:44.143Z,19.18
2018-06-01T12:33:44.077Z,19.02
2018-06-01T12:34:44.008Z,19.04
2018-06-01T12:35:43.932Z,19.11
2018-06-01T12:36:43.873Z,19.06
2018-06-01T12:38:04.776Z,19.07
2018-06-01T12:38:43.719Z,19.02
2018-06-01T12:39:43.672Z,19.06
2018-06-01T12:40:43.576Z,19.11
2018-06-01T12:41:43.507Z,19.04
2018-06-01T12:42:43.440Z,18.94
2018-06-01T12:44:04.354Z,19.13
2018-06-01T12:44:43.295Z,19.07
2018-06-01T12:45:43.227Z,19.00
2018-06-01T12:46:43.162Z,19.00
2018-06-01T12:47:43.090Z,19.04
2018-06-01T12:48:43.022Z,19.02
2018-06-01T12:50:03.928Z,18.94
2018-06-01T12:50:42.887Z,18.99
2018-06-01T12:51:42.809Z,19.08